Overview Statistics Trail Chart Weather Telemetry Raw packets
 

This is the latest recevied weather packets stored in our database for station/object IN3MWE-10. If no packets are shown the sender has not sent any weather packets the latest 10 day(s).

<< 21 22 23 24 25 26 27 >>
Time Temp. Humidity Pressure Rain* Wind** Luminosity Snow
1788163517 28.89° C 53% 980.4 hPa - - - -
1788162617 27.78° C 56% 980.5 hPa - - - -
1788161717 26.67° C 66% 980.6 hPa - - - -
1788160816 23.89° C 87% 980.7 hPa - - - -
1788159916 21.11° C 98% 980.8 hPa - - - -
1788159016 21.67° C 99% 980.7 hPa - - - -
1788158116 20.56° C 100% 980.7 hPa - - - -
1788157216 20.56° C 100% 980.6 hPa - - - -
1788156316 20.56° C 99% 980.7 hPa - - - -
1788155416 21.11° C 93% 980.6 hPa - - - -
1788154515 20.56° C 94% 980.5 hPa - - - -
1788153615 20.56° C 99% 980.6 hPa - - - -
1788152715 20° C 100% 980.5 hPa - - - -
1788151815 20° C 100% 980.5 hPa - - - -
1788150915 20° C 100% 980.3 hPa - - - -
1788150015 20° C 99% 980.4 hPa - - - -
1788149115 20.56° C 98% 980.3 hPa - - - -
1788148214 20.56° C 98% 980.3 hPa - - - -
1788147314 20.56° C 100% 980.2 hPa - - - -
1788146414 20.56° C 99% 980.2 hPa - - - -
1788145513 20.56° C 100% 980.1 hPa - - - -
1788144627 21.11° C 97% 980 hPa - - - -
1788143727 21.67° C 92% 980.1 hPa - - - -
1788142826 21.11° C 94% 980 hPa - - - -
1788141926 21.11° C 95% 979.9 hPa - - - -

* Rain since midnight (hover to see other rain measurements)
** Current wind speed in m/s (hover to see current wind gust speed)